sensor_id;sensor_type;location;lat;lon;timestamp;temperature;humidity
10245;DHT22;5167;52.164;10.530;2022-12-07T00:01:16;5.10;73.00
10245;DHT22;5167;52.164;10.530;2022-12-07T00:03:43;5.10;73.50
10245;DHT22;5167;52.164;10.530;2022-12-07T00:06:11;5.10;72.70
10245;DHT22;5167;52.164;10.530;2022-12-07T00:08:37;5.10;73.00
10245;DHT22;5167;52.164;10.530;2022-12-07T00:11:05;5.20;73.20
10245;DHT22;5167;52.164;10.530;2022-12-07T00:13:32;5.10;73.90
10245;DHT22;5167;52.164;10.530;2022-12-07T00:16:09;5.10;74.20
10245;DHT22;5167;52.164;10.530;2022-12-07T00:18:36;5.00;74.00
10245;DHT22;5167;52.164;10.530;2022-12-07T00:21:03;5.00;74.20
10245;DHT22;5167;52.164;10.530;2022-12-07T00:23:29;5.00;74.80
10245;DHT22;5167;52.164;10.530;2022-12-07T00:25:54;5.10;74.00
10245;DHT22;5167;52.164;10.530;2022-12-07T00:28:20;5.10;74.40
10245;DHT22;5167;52.164;10.530;2022-12-07T00:30:45;5.10;74.30
10245;DHT22;5167;52.164;10.530;2022-12-07T00:33:11;5.10;74.70
10245;DHT22;5167;52.164;10.530;2022-12-07T00:35:36;5.10;75.30
10245;DHT22;5167;52.164;10.530;2022-12-07T00:38:02;5.00;75.00
10245;DHT22;5167;52.164;10.530;2022-12-07T00:40:27;5.20;74.60
10245;DHT22;5167;52.164;10.530;2022-12-07T00:42:53;5.00;75.30
10245;DHT22;5167;52.164;10.530;2022-12-07T00:45:18;5.10;76.00
10245;DHT22;5167;52.164;10.530;2022-12-07T00:47:44;5.10;76.30
10245;DHT22;5167;52.164;10.530;2022-12-07T00:50:09;5.10;78.30
10245;DHT22;5167;52.164;10.530;2022-12-07T00:52:35;5.00;78.40
10245;DHT22;5167;52.164;10.530;2022-12-07T00:55:00;5.20;78.20
10245;DHT22;5167;52.164;10.530;2022-12-07T00:57:26;5.20;77.30
10245;DHT22;5167;52.164;10.530;2022-12-07T00:59:51;5.20;77.60
10245;DHT22;5167;52.164;10.530;2022-12-07T01:02:21;5.10;78.80
10245;DHT22;5167;52.164;10.530;2022-12-07T01:04:46;5.10;79.50
10245;DHT22;5167;52.164;10.530;2022-12-07T01:07:12;5.10;81.40
10245;DHT22;5167;52.164;10.530;2022-12-07T01:09:37;5.10;82.80
10245;DHT22;5167;52.164;10.530;2022-12-07T01:12:03;5.10;83.70
10245;DHT22;5167;52.164;10.530;2022-12-07T01:14:28;5.10;83.90
10245;DHT22;5167;52.164;10.530;2022-12-07T01:16:54;5.10;84.40
10245;DHT22;5167;52.164;10.530;2022-12-07T01:19:19;5.10;84.90
10245;DHT22;5167;52.164;10.530;2022-12-07T01:21:45;5.10;85.20
10245;DHT22;5167;52.164;10.530;2022-12-07T01:24:11;5.20;86.10
10245;DHT22;5167;52.164;10.530;2022-12-07T01:26:37;5.30;85.90
10245;DHT22;5167;52.164;10.530;2022-12-07T01:29:02;5.30;85.10
10245;DHT22;5167;52.164;10.530;2022-12-07T01:31:28;5.20;85.90
10245;DHT22;5167;52.164;10.530;2022-12-07T01:33:58;5.30;86.00
10245;DHT22;5167;52.164;10.530;2022-12-07T01:36:26;5.20;86.60
10245;DHT22;5167;52.164;10.530;2022-12-07T01:38:56;5.30;86.60
10245;DHT22;5167;52.164;10.530;2022-12-07T01:41:23;5.30;86.10
10245;DHT22;5167;52.164;10.530;2022-12-07T01:46:40;5.30;85.00
10245;DHT22;5167;52.164;10.530;2022-12-07T01:49:09;5.40;85.10
10245;DHT22;5167;52.164;10.530;2022-12-07T01:51:37;5.30;85.40
10245;DHT22;5167;52.164;10.530;2022-12-07T01:54:04;5.30;85.10
10245;DHT22;5167;52.164;10.530;2022-12-07T01:56:31;5.50;85.70
10245;DHT22;5167;52.164;10.530;2022-12-07T01:58:58;5.30;84.60
10245;DHT22;5167;52.164;10.530;2022-12-07T02:01:25;5.40;84.90
10245;DHT22;5167;52.164;10.530;2022-12-07T02:03:51;5.40;84.80
10245;DHT22;5167;52.164;10.530;2022-12-07T02:06:21;5.40;85.30
10245;DHT22;5167;52.164;10.530;2022-12-07T02:08:48;5.40;85.30
10245;DHT22;5167;52.164;10.530;2022-12-07T02:11:14;5.30;85.90
10245;DHT22;5167;52.164;10.530;2022-12-07T02:13:42;5.30;86.10
10245;DHT22;5167;52.164;10.530;2022-12-07T02:22:00;5.40;88.30
10245;DHT22;5167;52.164;10.530;2022-12-07T02:27:45;5.40;88.40
10245;DHT22;5167;52.164;10.530;2022-12-07T02:30:12;5.40;88.50
10245;DHT22;5167;52.164;10.530;2022-12-07T02:33:00;5.50;89.90
10245;DHT22;5167;52.164;10.530;2022-12-07T02:35:35;5.40;89.90
10245;DHT22;5167;52.164;10.530;2022-12-07T02:38:13;5.40;90.20
10245;DHT22;5167;52.164;10.530;2022-12-07T02:40:57;5.40;91.20
10245;DHT22;5167;52.164;10.530;2022-12-07T02:43:28;5.40;91.70
10245;DHT22;5167;52.164;10.530;2022-12-07T02:46:01;5.40;91.90
10245;DHT22;5167;52.164;10.530;2022-12-07T02:48:28;5.40;92.20
10245;DHT22;5167;52.164;10.530;2022-12-07T02:50:54;5.50;91.70
10245;DHT22;5167;52.164;10.530;2022-12-07T02:53:41;5.50;92.00
10245;DHT22;5167;52.164;10.530;2022-12-07T02:56:37;5.60;91.90
10245;DHT22;5167;52.164;10.530;2022-12-07T03:08:13;5.40;92.80
10245;DHT22;5167;52.164;10.530;2022-12-07T03:11:00;5.40;94.60
10245;DHT22;5167;52.164;10.530;2022-12-07T03:18:51;5.40;94.70
10245;DHT22;5167;52.164;10.530;2022-12-07T03:21:34;5.50;96.30
10245;DHT22;5167;52.164;10.530;2022-12-07T03:24:06;5.50;97.70
10245;DHT22;5167;52.164;10.530;2022-12-07T03:26:41;5.50;97.80
10245;DHT22;5167;52.164;10.530;2022-12-07T03:29:14;5.50;98.00
10245;DHT22;5167;52.164;10.530;2022-12-07T03:31:45;5.50;97.70
10245;DHT22;5167;52.164;10.530;2022-12-07T03:34:24;5.60;97.10
10245;DHT22;5167;52.164;10.530;2022-12-07T03:39:41;5.60;97.00
10245;DHT22;5167;52.164;10.530;2022-12-07T03:42:10;5.60;97.20
10245;DHT22;5167;52.164;10.530;2022-12-07T03:44:36;5.70;97.90
10245;DHT22;5167;52.164;10.530;2022-12-07T03:47:26;5.80;98.00
10245;DHT22;5167;52.164;10.530;2022-12-07T03:50:08;5.70;98.00
10245;DHT22;5167;52.164;10.530;2022-12-07T03:52:38;5.70;98.40
10245;DHT22;5167;52.164;10.530;2022-12-07T03:57:37;5.80;99.90
10245;DHT22;5167;52.164;10.530;2022-12-07T04:00:07;5.80;99.90
10245;DHT22;5167;52.164;10.530;2022-12-07T04:02:33;5.90;99.90
10245;DHT22;5167;52.164;10.530;2022-12-07T04:05:00;6.00;99.90
10245;DHT22;5167;52.164;10.530;2022-12-07T04:07:26;6.10;99.90
10245;DHT22;5167;52.164;10.530;2022-12-07T04:09:51;6.20;99.90
10245;DHT22;5167;52.164;10.530;2022-12-07T04:12:17;6.10;99.90
10245;DHT22;5167;52.164;10.530;2022-12-07T04:14:42;6.00;99.80
10245;DHT22;5167;52.164;10.530;2022-12-07T04:17:08;6.10;99.80
10245;DHT22;5167;52.164;10.530;2022-12-07T04:19:34;6.10;99.20
10245;DHT22;5167;52.164;10.530;2022-12-07T04:22:02;6.10;99.00
10245;DHT22;5167;52.164;10.530;2022-12-07T04:24:28;6.10;99.00
10245;DHT22;5167;52.164;10.530;2022-12-07T04:26:53;6.20;98.50
10245;DHT22;5167;52.164;10.530;2022-12-07T04:29:20;6.20;98.10
10245;DHT22;5167;52.164;10.530;2022-12-07T04:31:46;6.10;98.00
10245;DHT22;5167;52.164;10.530;2022-12-07T04:34:11;6.20;98.10
10245;DHT22;5167;52.164;10.530;2022-12-07T04:36:38;6.30;98.60
10245;DHT22;5167;52.164;10.530;2022-12-07T04:39:06;6.30;98.30
10245;DHT22;5167;52.164;10.530;2022-12-07T04:41:32;6.30;97.40
10245;DHT22;5167;52.164;10.530;2022-12-07T04:44:02;6.30;96.00
10245;DHT22;5167;52.164;10.530;2022-12-07T04:46:29;6.40;96.20
10245;DHT22;5167;52.164;10.530;2022-12-07T04:48:55;6.40;95.80
10245;DHT22;5167;52.164;10.530;2022-12-07T04:51:26;6.40;93.30
10245;DHT22;5167;52.164;10.530;2022-12-07T04:53:53;6.30;94.30
10245;DHT22;5167;52.164;10.530;2022-12-07T04:56:19;6.30;94.20
10245;DHT22;5167;52.164;10.530;2022-12-07T04:58:46;6.30;94.10
10245;DHT22;5167;52.164;10.530;2022-12-07T05:01:12;6.40;93.40
10245;DHT22;5167;52.164;10.530;2022-12-07T05:03:39;6.40;92.90
10245;DHT22;5167;52.164;10.530;2022-12-07T05:06:05;6.40;92.40
10245;DHT22;5167;52.164;10.530;2022-12-07T05:08:32;6.30;90.70
10245;DHT22;5167;52.164;10.530;2022-12-07T05:10:58;6.40;88.80
10245;DHT22;5167;52.164;10.530;2022-12-07T05:13:24;6.30;88.60
10245;DHT22;5167;52.164;10.530;2022-12-07T05:15:49;6.30;87.20
10245;DHT22;5167;52.164;10.530;2022-12-07T05:18:15;6.30;85.80
10245;DHT22;5167;52.164;10.530;2022-12-07T05:20:42;6.50;86.10
10245;DHT22;5167;52.164;10.530;2022-12-07T05:23:07;6.20;85.80
10245;DHT22;5167;52.164;10.530;2022-12-07T05:25:33;6.30;85.80
10245;DHT22;5167;52.164;10.530;2022-12-07T05:27:59;6.30;85.60
10245;DHT22;5167;52.164;10.530;2022-12-07T05:30:25;6.30;85.60
10245;DHT22;5167;52.164;10.530;2022-12-07T05:32:51;6.30;85.00
10245;DHT22;5167;52.164;10.530;2022-12-07T05:35:17;6.20;85.20
10245;DHT22;5167;52.164;10.530;2022-12-07T05:37:44;6.20;84.30
10245;DHT22;5167;52.164;10.530;2022-12-07T05:40:10;6.20;83.30
10245;DHT22;5167;52.164;10.530;2022-12-07T05:42:36;6.20;83.80
10245;DHT22;5167;52.164;10.530;2022-12-07T05:45:02;6.20;83.40
10245;DHT22;5167;52.164;10.530;2022-12-07T05:47:28;6.30;83.00
10245;DHT22;5167;52.164;10.530;2022-12-07T05:49:53;6.10;83.20
10245;DHT22;5167;52.164;10.530;2022-12-07T05:52:19;6.30;83.40
10245;DHT22;5167;52.164;10.530;2022-12-07T05:54:44;6.20;83.60
10245;DHT22;5167;52.164;10.530;2022-12-07T05:57:10;6.20;82.90
10245;DHT22;5167;52.164;10.530;2022-12-07T05:59:36;6.20;82.90
10245;DHT22;5167;52.164;10.530;2022-12-07T06:02:05;6.20;83.20
10245;DHT22;5167;52.164;10.530;2022-12-07T06:04:33;6.30;83.20
10245;DHT22;5167;52.164;10.530;2022-12-07T06:06:59;6.30;82.90
10245;DHT22;5167;52.164;10.530;2022-12-07T06:09:26;6.30;82.10
10245;DHT22;5167;52.164;10.530;2022-12-07T06:11:52;6.30;82.50
10245;DHT22;5167;52.164;10.530;2022-12-07T06:14:37;6.20;82.20
10245;DHT22;5167;52.164;10.530;2022-12-07T06:17:03;6.30;82.80
10245;DHT22;5167;52.164;10.530;2022-12-07T06:19:29;6.40;82.80
10245;DHT22;5167;52.164;10.530;2022-12-07T06:21:55;6.30;81.60
10245;DHT22;5167;52.164;10.530;2022-12-07T06:24:20;6.30;81.90
10245;DHT22;5167;52.164;10.530;2022-12-07T06:26:46;6.30;80.40
10245;DHT22;5167;52.164;10.530;2022-12-07T06:29:12;6.30;81.40
10245;DHT22;5167;52.164;10.530;2022-12-07T06:31:38;6.40;81.20
10245;DHT22;5167;52.164;10.530;2022-12-07T06:34:06;6.30;80.90
10245;DHT22;5167;52.164;10.530;2022-12-07T06:36:33;6.30;80.80
10245;DHT22;5167;52.164;10.530;2022-12-07T06:38:58;6.40;80.40
10245;DHT22;5167;52.164;10.530;2022-12-07T06:41:24;6.40;80.60
10245;DHT22;5167;52.164;10.530;2022-12-07T06:43:50;6.40;79.90
10245;DHT22;5167;52.164;10.530;2022-12-07T06:46:16;6.30;79.60
10245;DHT22;5167;52.164;10.530;2022-12-07T06:48:43;6.30;78.80
10245;DHT22;5167;52.164;10.530;2022-12-07T06:51:09;6.30;78.30
10245;DHT22;5167;52.164;10.530;2022-12-07T06:53:35;6.30;78.40
10245;DHT22;5167;52.164;10.530;2022-12-07T06:56:01;6.40;78.60
10245;DHT22;5167;52.164;10.530;2022-12-07T06:58:26;6.30;77.40
10245;DHT22;5167;52.164;10.530;2022-12-07T07:00:52;6.30;77.50
10245;DHT22;5167;52.164;10.530;2022-12-07T07:03:18;6.30;76.90
10245;DHT22;5167;52.164;10.530;2022-12-07T07:05:44;6.20;76.60
10245;DHT22;5167;52.164;10.530;2022-12-07T07:08:10;6.20;76.90
10245;DHT22;5167;52.164;10.530;2022-12-07T07:10:36;6.30;76.90
10245;DHT22;5167;52.164;10.530;2022-12-07T07:13:03;6.30;76.60
10245;DHT22;5167;52.164;10.530;2022-12-07T07:15:29;6.20;75.90
10245;DHT22;5167;52.164;10.530;2022-12-07T07:17:54;6.20;75.70
10245;DHT22;5167;52.164;10.530;2022-12-07T07:20:20;6.30;74.90
10245;DHT22;5167;52.164;10.530;2022-12-07T07:22:46;6.30;75.90
10245;DHT22;5167;52.164;10.530;2022-12-07T07:25:11;6.20;75.50
10245;DHT22;5167;52.164;10.530;2022-12-07T07:27:37;6.20;75.60
10245;DHT22;5167;52.164;10.530;2022-12-07T07:30:04;6.20;76.00
10245;DHT22;5167;52.164;10.530;2022-12-07T07:32:30;6.30;75.50
10245;DHT22;5167;52.164;10.530;2022-12-07T07:34:55;6.30;75.90
10245;DHT22;5167;52.164;10.530;2022-12-07T07:37:21;6.20;75.60
10245;DHT22;5167;52.164;10.530;2022-12-07T07:39:46;6.20;75.90
10245;DHT22;5167;52.164;10.530;2022-12-07T07:42:12;6.20;76.00
10245;DHT22;5167;52.164;10.530;2022-12-07T07:44:38;6.40;75.80
10245;DHT22;5167;52.164;10.530;2022-12-07T07:47:03;6.30;75.70
10245;DHT22;5167;52.164;10.530;2022-12-07T07:49:29;6.20;75.40
10245;DHT22;5167;52.164;10.530;2022-12-07T07:51:54;6.50;75.60
10245;DHT22;5167;52.164;10.530;2022-12-07T07:54:20;6.30;75.20
10245;DHT22;5167;52.164;10.530;2022-12-07T07:56:45;6.30;75.50
10245;DHT22;5167;52.164;10.530;2022-12-07T07:59:11;6.30;74.70
10245;DHT22;5167;52.164;10.530;2022-12-07T08:01:36;6.30;74.50
10245;DHT22;5167;52.164;10.530;2022-12-07T08:04:02;6.30;74.90
10245;DHT22;5167;52.164;10.530;2022-12-07T08:06:27;6.30;74.70
10245;DHT22;5167;52.164;10.530;2022-12-07T08:08:53;6.30;73.70
10245;DHT22;5167;52.164;10.530;2022-12-07T08:11:18;6.30;74.30
10245;DHT22;5167;52.164;10.530;2022-12-07T08:13:47;6.30;73.80
10245;DHT22;5167;52.164;10.530;2022-12-07T08:16:13;6.30;74.00
10245;DHT22;5167;52.164;10.530;2022-12-07T08:18:40;6.30;74.10
10245;DHT22;5167;52.164;10.530;2022-12-07T08:21:07;6.30;73.60
10245;DHT22;5167;52.164;10.530;2022-12-07T08:23:34;6.30;73.00
10245;DHT22;5167;52.164;10.530;2022-12-07T08:26:01;6.20;73.00
10245;DHT22;5167;52.164;10.530;2022-12-07T08:28:27;6.30;73.10
10245;DHT22;5167;52.164;10.530;2022-12-07T08:30:59;6.10;72.40
10245;DHT22;5167;52.164;10.530;2022-12-07T08:33:25;6.20;72.60
10245;DHT22;5167;52.164;10.530;2022-12-07T08:35:51;6.30;72.30
10245;DHT22;5167;52.164;10.530;2022-12-07T08:38:16;6.20;72.70
10245;DHT22;5167;52.164;10.530;2022-12-07T08:40:42;6.20;72.80
10245;DHT22;5167;52.164;10.530;2022-12-07T08:43:07;6.20;73.40
10245;DHT22;5167;52.164;10.530;2022-12-07T08:45:33;6.20;73.50
10245;DHT22;5167;52.164;10.530;2022-12-07T08:48:10;6.20;73.00
10245;DHT22;5167;52.164;10.530;2022-12-07T08:50:38;6.20;73.20
10245;DHT22;5167;52.164;10.530;2022-12-07T08:53:04;6.30;72.80
10245;DHT22;5167;52.164;10.530;2022-12-07T08:55:31;6.30;73.60
10245;DHT22;5167;52.164;10.530;2022-12-07T08:58:00;6.30;73.00
10245;DHT22;5167;52.164;10.530;2022-12-07T09:00:27;6.30;72.40
10245;DHT22;5167;52.164;10.530;2022-12-07T09:02:53;6.40;72.00
10245;DHT22;5167;52.164;10.530;2022-12-07T09:05:20;6.30;71.50
10245;DHT22;5167;52.164;10.530;2022-12-07T09:07:48;6.30;71.40
10245;DHT22;5167;52.164;10.530;2022-12-07T09:10:15;6.30;72.10
10245;DHT22;5167;52.164;10.530;2022-12-07T09:12:41;6.50;72.10
10245;DHT22;5167;52.164;10.530;2022-12-07T09:15:07;6.30;72.20
10245;DHT22;5167;52.164;10.530;2022-12-07T09:17:34;6.30;73.00
10245;DHT22;5167;52.164;10.530;2022-12-07T09:19:59;6.30;72.30
10245;DHT22;5167;52.164;10.530;2022-12-07T09:22:29;6.30;73.20
10245;DHT22;5167;52.164;10.530;2022-12-07T09:24:54;6.20;73.40
10245;DHT22;5167;52.164;10.530;2022-12-07T09:27:20;6.30;73.20
10245;DHT22;5167;52.164;10.530;2022-12-07T09:29:45;6.30;73.60
10245;DHT22;5167;52.164;10.530;2022-12-07T09:32:11;6.20;73.40
10245;DHT22;5167;52.164;10.530;2022-12-07T09:34:36;6.20;74.00
10245;DHT22;5167;52.164;10.530;2022-12-07T09:37:02;6.30;74.10
10245;DHT22;5167;52.164;10.530;2022-12-07T09:39:28;6.30;73.70
10245;DHT22;5167;52.164;10.530;2022-12-07T09:41:54;6.30;74.10
10245;DHT22;5167;52.164;10.530;2022-12-07T09:44:25;6.20;74.30
10245;DHT22;5167;52.164;10.530;2022-12-07T09:46:51;6.30;74.60
10245;DHT22;5167;52.164;10.530;2022-12-07T09:49:20;6.30;74.50
10245;DHT22;5167;52.164;10.530;2022-12-07T09:51:47;6.40;74.80
10245;DHT22;5167;52.164;10.530;2022-12-07T09:54:15;6.30;74.90
10245;DHT22;5167;52.164;10.530;2022-12-07T09:56:41;6.30;75.30
10245;DHT22;5167;52.164;10.530;2022-12-07T09:59:13;6.40;75.80
10245;DHT22;5167;52.164;10.530;2022-12-07T10:01:42;6.40;75.60
10245;DHT22;5167;52.164;10.530;2022-12-07T10:04:15;6.40;75.40
10245;DHT22;5167;52.164;10.530;2022-12-07T10:06:42;6.40;74.80
10245;DHT22;5167;52.164;10.530;2022-12-07T10:09:13;6.50;75.30
10245;DHT22;5167;52.164;10.530;2022-12-07T10:14:28;6.50;74.10
10245;DHT22;5167;52.164;10.530;2022-12-07T10:16:55;6.50;74.40
10245;DHT22;5167;52.164;10.530;2022-12-07T10:19:25;6.50;74.20
10245;DHT22;5167;52.164;10.530;2022-12-07T10:22:12;6.50;74.30
10245;DHT22;5167;52.164;10.530;2022-12-07T10:24:40;6.50;73.90
10245;DHT22;5167;52.164;10.530;2022-12-07T10:27:22;6.60;73.50
10245;DHT22;5167;52.164;10.530;2022-12-07T10:29:52;6.50;73.40
10245;DHT22;5167;52.164;10.530;2022-12-07T10:34:43;6.50;73.30
10245;DHT22;5167;52.164;10.530;2022-12-07T10:39:52;6.60;73.10
10245;DHT22;5167;52.164;10.530;2022-12-07T10:42:26;6.60;70.20
10245;DHT22;5167;52.164;10.530;2022-12-07T10:55:51;6.70;69.80
10245;DHT22;5167;52.164;10.530;2022-12-07T10:58:31;6.70;69.60
10245;DHT22;5167;52.164;10.530;2022-12-07T11:07:05;6.90;67.80
10245;DHT22;5167;52.164;10.530;2022-12-07T11:09:36;6.80;67.00
10245;DHT22;5167;52.164;10.530;2022-12-07T11:12:13;6.90;67.20
10245;DHT22;5167;52.164;10.530;2022-12-07T11:15:04;6.90;67.00
10245;DHT22;5167;52.164;10.530;2022-12-07T11:17:43;7.00;65.90
10245;DHT22;5167;52.164;10.530;2022-12-07T11:22:57;7.10;62.10
10245;DHT22;5167;52.164;10.530;2022-12-07T11:25:33;7.10;61.70
10245;DHT22;5167;52.164;10.530;2022-12-07T11:28:23;7.10;60.70
10245;DHT22;5167;52.164;10.530;2022-12-07T11:33:48;7.10;59.00
10245;DHT22;5167;52.164;10.530;2022-12-07T11:36:37;7.10;59.40
10245;DHT22;5167;52.164;10.530;2022-12-07T11:39:19;7.20;57.80
10245;DHT22;5167;52.164;10.530;2022-12-07T11:41:49;7.10;56.60
10245;DHT22;5167;52.164;10.530;2022-12-07T11:47:09;7.10;54.50
10245;DHT22;5167;52.164;10.530;2022-12-07T11:49:56;7.00;54.70
10245;DHT22;5167;52.164;10.530;2022-12-07T11:52:43;7.10;54.20
10245;DHT22;5167;52.164;10.530;2022-12-07T12:01:14;7.10;53.40
10245;DHT22;5167;52.164;10.530;2022-12-07T12:06:37;7.00;52.90
10245;DHT22;5167;52.164;10.530;2022-12-07T12:09:04;7.00;54.10
10245;DHT22;5167;52.164;10.530;2022-12-07T12:11:39;7.10;53.90
10245;DHT22;5167;52.164;10.530;2022-12-07T12:22:38;7.00;54.00
10245;DHT22;5167;52.164;10.530;2022-12-07T12:25:09;7.00;54.10
10245;DHT22;5167;52.164;10.530;2022-12-07T12:27:39;7.00;54.60
10245;DHT22;5167;52.164;10.530;2022-12-07T12:30:22;7.00;54.70
10245;DHT22;5167;52.164;10.530;2022-12-07T12:32:49;7.00;55.00
10245;DHT22;5167;52.164;10.530;2022-12-07T12:35:41;7.20;55.40
10245;DHT22;5167;52.164;10.530;2022-12-07T12:40:53;7.20;54.70
10245;DHT22;5167;52.164;10.530;2022-12-07T12:43:41;7.20;53.30
10245;DHT22;5167;52.164;10.530;2022-12-07T12:54:29;6.80;50.90
10245;DHT22;5167;52.164;10.530;2022-12-07T13:10:39;6.60;49.80
10245;DHT22;5167;52.164;10.530;2022-12-07T13:23:30;6.60;51.10
10245;DHT22;5167;52.164;10.530;2022-12-07T13:26:00;6.60;51.50
10245;DHT22;5167;52.164;10.530;2022-12-07T13:28:33;6.60;50.90
10245;DHT22;5167;52.164;10.530;2022-12-07T13:31:09;6.60;51.10
10245;DHT22;5167;52.164;10.530;2022-12-07T13:33:36;6.60;52.80
10245;DHT22;5167;52.164;10.530;2022-12-07T13:36:02;6.60;52.80
10245;DHT22;5167;52.164;10.530;2022-12-07T13:38:31;6.60;52.70
10245;DHT22;5167;52.164;10.530;2022-12-07T13:41:17;6.70;52.40
10245;DHT22;5167;52.164;10.530;2022-12-07T13:43:45;6.70;52.40
10245;DHT22;5167;52.164;10.530;2022-12-07T13:46:11;6.70;52.40
10245;DHT22;5167;52.164;10.530;2022-12-07T13:48:51;6.80;52.40
10245;DHT22;5167;52.164;10.530;2022-12-07T13:51:22;6.80;53.10
10245;DHT22;5167;52.164;10.530;2022-12-07T13:54:08;6.70;52.10
10245;DHT22;5167;52.164;10.530;2022-12-07T13:56:35;6.70;52.40
10245;DHT22;5167;52.164;10.530;2022-12-07T13:59:02;6.70;52.90
10245;DHT22;5167;52.164;10.530;2022-12-07T14:01:30;6.70;52.50
10245;DHT22;5167;52.164;10.530;2022-12-07T14:03:56;6.80;52.90
10245;DHT22;5167;52.164;10.530;2022-12-07T14:06:48;6.70;52.70
10245;DHT22;5167;52.164;10.530;2022-12-07T14:09:19;6.70;51.70
10245;DHT22;5167;52.164;10.530;2022-12-07T14:11:46;6.70;52.00
10245;DHT22;5167;52.164;10.530;2022-12-07T14:14:25;6.70;52.00
10245;DHT22;5167;52.164;10.530;2022-12-07T14:16:57;6.80;52.70
10245;DHT22;5167;52.164;10.530;2022-12-07T14:19:48;6.70;51.80
10245;DHT22;5167;52.164;10.530;2022-12-07T14:24:49;6.70;52.10
10245;DHT22;5167;52.164;10.530;2022-12-07T14:27:19;6.80;52.00
10245;DHT22;5167;52.164;10.530;2022-12-07T14:29:46;6.80;52.10
10245;DHT22;5167;52.164;10.530;2022-12-07T14:37:24;6.80;51.60
10245;DHT22;5167;52.164;10.530;2022-12-07T14:39:50;6.70;51.70
10245;DHT22;5167;52.164;10.530;2022-12-07T14:42:16;6.70;51.20
10245;DHT22;5167;52.164;10.530;2022-12-07T14:44:42;6.60;50.60
10245;DHT22;5167;52.164;10.530;2022-12-07T14:47:11;6.70;50.00
10245;DHT22;5167;52.164;10.530;2022-12-07T14:49:36;6.70;50.10
10245;DHT22;5167;52.164;10.530;2022-12-07T14:52:02;6.70;48.70
10245;DHT22;5167;52.164;10.530;2022-12-07T14:54:31;6.70;49.70
10245;DHT22;5167;52.164;10.530;2022-12-07T14:56:57;6.70;48.10
10245;DHT22;5167;52.164;10.530;2022-12-07T14:59:22;6.70;48.90
10245;DHT22;5167;52.164;10.530;2022-12-07T15:01:48;6.70;48.80
10245;DHT22;5167;52.164;10.530;2022-12-07T15:04:14;6.70;47.10
10245;DHT22;5167;52.164;10.530;2022-12-07T15:06:39;6.70;48.70
10245;DHT22;5167;52.164;10.530;2022-12-07T15:09:05;6.80;48.70
10245;DHT22;5167;52.164;10.530;2022-12-07T15:11:31;6.80;48.70
10245;DHT22;5167;52.164;10.530;2022-12-07T15:13:57;6.80;48.10
10245;DHT22;5167;52.164;10.530;2022-12-07T15:16:37;6.70;48.70
10245;DHT22;5167;52.164;10.530;2022-12-07T15:19:05;6.70;48.70
10245;DHT22;5167;52.164;10.530;2022-12-07T15:21:31;6.70;47.90
10245;DHT22;5167;52.164;10.530;2022-12-07T15:23:57;6.70;48.30
10245;DHT22;5167;52.164;10.530;2022-12-07T15:26:22;6.70;48.00
10245;DHT22;5167;52.164;10.530;2022-12-07T15:28:48;6.70;47.80
10245;DHT22;5167;52.164;10.530;2022-12-07T15:31:14;6.70;48.10
10245;DHT22;5167;52.164;10.530;2022-12-07T15:33:41;6.70;48.40
10245;DHT22;5167;52.164;10.530;2022-12-07T15:36:07;6.70;48.30
10245;DHT22;5167;52.164;10.530;2022-12-07T15:38:32;6.70;48.50
10245;DHT22;5167;52.164;10.530;2022-12-07T15:40:58;6.70;48.70
10245;DHT22;5167;52.164;10.530;2022-12-07T15:43:23;6.60;49.00
10245;DHT22;5167;52.164;10.530;2022-12-07T15:46:08;6.60;49.20
10245;DHT22;5167;52.164;10.530;2022-12-07T15:48:33;6.70;49.30
10245;DHT22;5167;52.164;10.530;2022-12-07T15:51:07;6.70;49.30
10245;DHT22;5167;52.164;10.530;2022-12-07T15:53:34;6.80;49.40
10245;DHT22;5167;52.164;10.530;2022-12-07T15:56:00;6.80;49.50
10245;DHT22;5167;52.164;10.530;2022-12-07T15:58:26;6.70;49.20
10245;DHT22;5167;52.164;10.530;2022-12-07T16:00:51;6.80;49.10
10245;DHT22;5167;52.164;10.530;2022-12-07T16:03:17;6.80;49.50
10245;DHT22;5167;52.164;10.530;2022-12-07T16:05:51;6.70;49.30
10245;DHT22;5167;52.164;10.530;2022-12-07T16:08:17;6.80;49.20
10245;DHT22;5167;52.164;10.530;2022-12-07T16:10:42;6.80;49.20
10245;DHT22;5167;52.164;10.530;2022-12-07T16:13:09;6.80;48.10
10245;DHT22;5167;52.164;10.530;2022-12-07T16:15:39;6.80;47.80
10245;DHT22;5167;52.164;10.530;2022-12-07T16:18:04;6.80;47.80
10245;DHT22;5167;52.164;10.530;2022-12-07T16:20:30;6.70;48.30
10245;DHT22;5167;52.164;10.530;2022-12-07T16:22:55;6.70;46.80
10245;DHT22;5167;52.164;10.530;2022-12-07T16:25:21;6.60;47.30
10245;DHT22;5167;52.164;10.530;2022-12-07T16:27:46;6.60;46.00
10245;DHT22;5167;52.164;10.530;2022-12-07T16:30:13;6.60;45.10
10245;DHT22;5167;52.164;10.530;2022-12-07T16:32:39;6.50;44.40
10245;DHT22;5167;52.164;10.530;2022-12-07T16:35:04;6.40;45.20
10245;DHT22;5167;52.164;10.530;2022-12-07T16:37:30;6.30;45.30
10245;DHT22;5167;52.164;10.530;2022-12-07T16:39:56;6.20;45.60
10245;DHT22;5167;52.164;10.530;2022-12-07T16:42:21;6.10;46.20
10245;DHT22;5167;52.164;10.530;2022-12-07T16:44:46;6.00;46.70
10245;DHT22;5167;52.164;10.530;2022-12-07T16:47:12;5.90;46.90
10245;DHT22;5167;52.164;10.530;2022-12-07T16:49:37;5.90;47.30
10245;DHT22;5167;52.164;10.530;2022-12-07T16:52:03;5.90;48.10
10245;DHT22;5167;52.164;10.530;2022-12-07T16:54:29;5.90;48.50
10245;DHT22;5167;52.164;10.530;2022-12-07T16:56:57;5.90;48.60
10245;DHT22;5167;52.164;10.530;2022-12-07T16:59:23;5.80;49.00
10245;DHT22;5167;52.164;10.530;2022-12-07T17:01:48;5.70;49.50
10245;DHT22;5167;52.164;10.530;2022-12-07T17:04:14;5.70;49.70
10245;DHT22;5167;52.164;10.530;2022-12-07T17:06:39;5.70;49.50
10245;DHT22;5167;52.164;10.530;2022-12-07T17:09:05;5.80;50.00
10245;DHT22;5167;52.164;10.530;2022-12-07T17:11:34;5.80;50.40
10245;DHT22;5167;52.164;10.530;2022-12-07T17:14:01;5.70;50.70
10245;DHT22;5167;52.164;10.530;2022-12-07T17:16:45;5.80;50.80
10245;DHT22;5167;52.164;10.530;2022-12-07T17:19:14;5.70;50.80
10245;DHT22;5167;52.164;10.530;2022-12-07T17:21:40;5.70;50.00
10245;DHT22;5167;52.164;10.530;2022-12-07T17:24:08;5.70;50.50
10245;DHT22;5167;52.164;10.530;2022-12-07T17:26:35;5.60;50.30
10245;DHT22;5167;52.164;10.530;2022-12-07T17:29:02;5.60;51.10
10245;DHT22;5167;52.164;10.530;2022-12-07T17:31:28;5.60;50.50
10245;DHT22;5167;52.164;10.530;2022-12-07T17:33:54;5.60;51.70
10245;DHT22;5167;52.164;10.530;2022-12-07T17:36:21;5.50;52.20
10245;DHT22;5167;52.164;10.530;2022-12-07T17:38:48;5.60;52.40
10245;DHT22;5167;52.164;10.530;2022-12-07T17:41:22;5.60;52.00
10245;DHT22;5167;52.164;10.530;2022-12-07T17:44:08;5.60;52.00
10245;DHT22;5167;52.164;10.530;2022-12-07T17:46:35;5.40;52.10
10245;DHT22;5167;52.164;10.530;2022-12-07T17:49:02;5.40;52.60
10245;DHT22;5167;52.164;10.530;2022-12-07T17:51:27;5.40;52.70
10245;DHT22;5167;52.164;10.530;2022-12-07T17:54:12;5.30;52.40
10245;DHT22;5167;52.164;10.530;2022-12-07T17:56:38;5.40;52.50
10245;DHT22;5167;52.164;10.530;2022-12-07T17:59:04;5.30;52.70